Terminal Aerodrome Forecast
Issued by NWS North Platte, NE

Home | Current Version | Previous Version | Graphics & Text | Print | Product List | Glossary Off
Versions: 1 2 3 4 5 6 7 8 9 10 11 12 13 14 15 16

000
FTUS43 KLBF 281728
TAFVTN
TAF
KVTN 281728Z 2818/2918 02010KT P6SM SCT040
      TEMPO 2818/2820 P6SM SCT025
     FM290300 VRB04KT P6SM SKC
     FM290800 23008KT P6SM SKC=

USA.gov is the U.S. government's official web portal to all federal, state and local government web resources and services.